Time;durP1;ratioP1;P1;durP2;ratioP2;P2;SDS_P1;SDS_P2;PMS_P1;PMS_P2;Temp;Humidity;BMP_temperature;BMP_pressure;BME280_temperature;BME280_humidity;BME280_pressure;Samples;Min_cycle;Max_cycle;Signal;HPM_P1;HPM_P2
2023/04/17 00:01:54;;;;;;;50.13;33.88;;;10.10;99.90;;;;;;5005291;28;20430;-77
2023/04/17 00:04:20;;;;;;;47.08;32.95;;;10.10;99.90;;;;;;5016244;28;20029;-76
2023/04/17 00:06:46;;;;;;;53.88;33.00;;;10.10;99.90;;;;;;5015670;28;20044;-76
2023/04/17 00:09:12;;;;;;;51.92;36.10;;;10.10;99.90;;;;;;5006097;28;20685;-76
2023/04/17 00:11:37;;;;;;;53.03;33.45;;;10.10;99.90;;;;;;5017548;28;20464;-76
2023/04/17 00:14:03;;;;;;;55.00;34.20;;;10.10;99.90;;;;;;5016808;28;20100;-77
2023/04/17 00:16:29;;;;;;;54.53;31.50;;;10.10;99.90;;;;;;5029980;28;20049;-77
2023/04/17 00:18:55;;;;;;;52.25;31.92;;;10.10;99.90;;;;;;5021496;28;20037;-76
2023/04/17 00:21:20;;;;;;;57.90;31.85;;;10.10;99.90;;;;;;5000855;28;20402;-77
2023/04/17 00:23:46;;;;;;;51.05;32.42;;;10.10;99.90;;;;;;5017839;28;20501;-76
2023/04/17 00:26:11;;;;;;;52.42;32.80;;;10.10;99.90;;;;;;5014679;28;20367;-76
2023/04/17 00:28:37;;;;;;;50.50;31.30;;;10.10;99.90;;;;;;5016936;28;20049;-77
2023/04/17 00:31:03;;;;;;;50.55;30.70;;;10.10;99.90;;;;;;5011800;28;20053;-77
2023/04/17 00:33:30;;;;;;;47.35;32.63;;;10.10;99.90;;;;;;5014893;28;20045;-76
2023/04/17 00:35:55;;;;;;;46.70;30.25;;;10.10;99.90;;;;;;5012610;28;20138;-76
2023/04/17 00:38:21;;;;;;;56.53;31.05;;;10.10;99.90;;;;;;5031174;28;20105;-77
2023/04/17 00:40:47;;;;;;;53.03;33.28;;;10.10;99.90;;;;;;5020365;28;20572;-77
2023/04/17 00:43:13;;;;;;;49.05;31.27;;;10.10;99.90;;;;;;4991313;28;20040;-76
2023/04/17 00:45:39;;;;;;;52.58;31.95;;;10.10;99.90;;;;;;5021595;28;20037;-76
2023/04/17 00:48:05;;;;;;;55.90;31.67;;;10.00;99.90;;;;;;5016375;28;20036;-76
2023/04/17 00:50:31;;;;;;;47.30;31.90;;;10.10;99.90;;;;;;5030454;28;20038;-76
2023/04/17 00:52:57;;;;;;;49.30;32.63;;;10.10;99.90;;;;;;5032424;28;20037;-76
2023/04/17 00:55:23;;;;;;;50.08;30.75;;;10.10;99.90;;;;;;5013734;28;20033;-77
2023/04/17 00:57:48;;;;;;;50.58;33.47;;;10.10;99.90;;;;;;5001341;28;20034;-76
2023/04/17 01:00:15;;;;;;;50.25;31.52;;;10.10;99.90;;;;;;5016149;28;20034;-76
2023/04/17 01:02:41;;;;;;;53.03;32.83;;;10.10;99.90;;;;;;5010823;28;20053;-76
2023/04/17 01:05:07;;;;;;;48.38;30.73;;;10.10;99.90;;;;;;4999020;28;20510;-78
2023/04/17 01:07:32;;;;;;;47.60;31.20;;;10.10;99.90;;;;;;5013274;28;20490;-78
2023/04/17 01:09:58;;;;;;;52.25;30.63;;;10.10;99.90;;;;;;5004947;28;20452;-78
2023/04/17 01:12:24;;;;;;;47.70;34.25;;;10.10;99.90;;;;;;5015951;28;20402;-76
2023/04/17 01:14:53;;;;;;;47.40;32.47;;;10.10;99.90;;;;;;5012816;28;20069;-77
2023/04/17 01:17:19;;;;;;;47.85;31.70;;;10.10;99.90;;;;;;5010909;28;20038;-77
2023/04/17 01:19:45;;;;;;;48.40;31.13;;;10.10;99.90;;;;;;5014630;28;20079;-76
2023/04/17 01:22:11;;;;;;;42.78;31.05;;;10.10;99.90;;;;;;5003934;28;20471;-76
2023/04/17 01:24:36;;;;;;;54.78;31.25;;;10.10;99.90;;;;;;5009874;28;20046;-76
2023/04/17 01:27:02;;;;;;;44.65;31.63;;;10.10;99.90;;;;;;5014212;28;20025;-76
2023/04/17 01:29:28;;;;;;;48.20;31.25;;;10.10;99.90;;;;;;5029822;28;20037;-76
2023/04/17 01:31:53;;;;;;;45.03;28.92;;;10.10;99.90;;;;;;5015657;28;20775;-77
2023/04/17 01:34:19;;;;;;;47.38;29.83;;;10.10;99.90;;;;;;5005532;28;20503;-76
2023/04/17 01:36:44;;;;;;;45.00;30.35;;;10.10;99.90;;;;;;5021217;28;20437;-76
2023/04/17 01:39:10;;;;;;;43.63;28.95;;;10.10;99.90;;;;;;5011373;28;20405;-76
2023/04/17 01:41:35;;;;;;;48.08;30.05;;;10.10;99.90;;;;;;5013161;28;20401;-76
2023/04/17 01:44:01;;;;;;;45.17;30.70;;;10.10;99.90;;;;;;5010642;28;20485;-76
2023/04/17 01:46:27;;;;;;;42.35;29.92;;;10.10;99.90;;;;;;5012933;28;20638;-76
2023/04/17 01:48:52;;;;;;;49.75;30.48;;;10.10;99.90;;;;;;5012223;28;20058;-79
2023/04/17 01:51:18;;;;;;;49.00;29.85;;;10.00;99.90;;;;;;4999481;28;20041;-77
2023/04/17 01:53:43;;;;;;;45.33;28.70;;;10.00;99.90;;;;;;4996261;28;20117;-77
2023/04/17 01:56:09;;;;;;;49.72;30.02;;;10.00;99.90;;;;;;5011721;28;20036;-76
2023/04/17 01:58:34;;;;;;;45.00;30.52;;;10.10;99.90;;;;;;5011431;28;20124;-76
2023/04/17 02:01:00;;;;;;;46.00;29.92;;;10.00;99.90;;;;;;5012015;28;20528;-76
2023/04/17 02:03:25;;;;;;;53.83;32.20;;;10.00;99.90;;;;;;5032994;28;20120;-76
2023/04/17 02:05:52;;;;;;;48.53;30.05;;;10.00;99.90;;;;;;5015931;28;20488;-78
2023/04/17 02:08:17;;;;;;;47.33;28.52;;;10.00;99.90;;;;;;5029199;28;20025;-76
2023/04/17 02:10:43;;;;;;;44.53;28.10;;;10.00;99.90;;;;;;5012130;28;20518;-76
2023/04/17 02:13:08;;;;;;;46.47;29.85;;;10.00;99.90;;;;;;5016751;28;20074;-76
2023/04/17 02:15:34;;;;;;;47.25;30.42;;;9.90;99.90;;;;;;5013367;28;20405;-76
2023/04/17 02:18:00;;;;;;;43.63;30.63;;;9.90;99.90;;;;;;5004517;28;20030;-76
2023/04/17 02:20:26;;;;;;;47.65;28.23;;;9.90;99.90;;;;;;5002507;28;20567;-77
2023/04/17 02:22:51;;;;;;;45.55;29.98;;;9.90;99.90;;;;;;5000438;28;20034;-77
2023/04/17 02:25:17;;;;;;;49.33;30.30;;;9.90;99.90;;;;;;5015985;28;20037;-76
2023/04/17 02:27:43;;;;;;;44.47;28.55;;;9.90;99.90;;;;;;4997750;28;20088;-76
2023/04/17 02:30:09;;;;;;;43.63;27.30;;;9.90;99.90;;;;;;5021898;28;20053;-76
2023/04/17 02:32:34;;;;;;;43.50;30.10;;;9.90;99.90;;;;;;4997253;28;20034;-77
2023/04/17 02:35:00;;;;;;;48.40;31.42;;;9.90;99.90;;;;;;5021633;28;20033;-78
2023/04/17 02:37:25;;;;;;;46.63;31.50;;;9.80;99.90;;;;;;4999380;28;20042;-78
2023/04/17 02:39:52;;;;;;;43.53;28.25;;;9.80;99.90;;;;;;5022086;28;20072;-78
2023/04/17 02:42:18;;;;;;;46.20;28.52;;;9.80;99.90;;;;;;5017152;28;20041;-78
2023/04/17 02:44:45;;;;;;;45.20;30.65;;;9.80;99.90;;;;;;5019555;28;20038;-78
2023/04/17 02:47:11;;;;;;;47.30;28.88;;;9.80;99.90;;;;;;5009061;28;20496;-78
2023/04/17 02:49:36;;;;;;;49.38;29.83;;;9.80;99.90;;;;;;5016582;28;20057;-79
2023/04/17 02:52:02;;;;;;;39.75;27.35;;;9.80;99.90;;;;;;5038602;28;20501;-78
2023/04/17 02:54:28;;;;;;;36.17;25.88;;;9.70;99.90;;;;;;5025297;28;20035;-78
2023/04/17 02:56:57;;;;;;;37.03;26.95;;;9.70;99.90;;;;;;5004095;28;20037;-77
2023/04/17 02:59:26;;;;;;;36.90;26.27;;;9.70;99.90;;;;;;5002659;28;20037;-77
2023/04/17 03:01:51;;;;;;;33.63;25.65;;;9.60;99.90;;;;;;5006266;28;20504;-76
2023/04/17 03:04:17;;;;;;;34.47;24.80;;;9.60;99.90;;;;;;5035985;28;20033;-77
2023/04/17 03:06:42;;;;;;;34.55;23.77;;;9.50;99.90;;;;;;5016814;28;20040;-78
2023/04/17 03:09:10;;;;;;;35.40;24.42;;;9.60;99.90;;;;;;5025668;28;20064;-76
2023/04/17 03:11:36;;;;;;;36.35;24.33;;;9.50;99.90;;;;;;5018351;28;20569;-76
2023/04/17 03:14:02;;;;;;;40.30;24.40;;;9.50;99.90;;;;;;5027075;28;20117;-76
2023/04/17 03:16:27;;;;;;;34.67;23.67;;;9.40;99.90;;;;;;5041066;28;20039;-77
2023/04/17 03:18:53;;;;;;;33.92;23.83;;;9.40;99.90;;;;;;5005420;28;20033;-76
2023/04/17 03:21:19;;;;;;;37.10;25.85;;;9.40;99.90;;;;;;5016961;28;20062;-76
2023/04/17 03:23:45;;;;;;;39.42;27.73;;;9.40;99.90;;;;;;5017556;28;20038;-76
2023/04/17 03:26:10;;;;;;;37.88;26.27;;;9.40;99.90;;;;;;5008017;28;20552;-77
2023/04/17 03:28:36;;;;;;;37.67;27.27;;;9.30;99.90;;;;;;5016218;28;20083;-76
2023/04/17 03:31:01;;;;;;;43.15;28.83;;;9.30;99.90;;;;;;5018270;28;20049;-76
2023/04/17 03:33:27;;;;;;;40.05;26.90;;;9.30;99.90;;;;;;5007605;28;20034;-76
2023/04/17 03:35:52;;;;;;;36.80;25.45;;;9.30;99.90;;;;;;5016634;28;20292;-77
2023/04/17 03:38:18;;;;;;;37.42;27.45;;;9.30;99.90;;;;;;5017712;28;20045;-77
2023/04/17 03:40:44;;;;;;;36.70;25.42;;;9.20;99.90;;;;;;5022993;28;20034;-76
2023/04/17 03:43:09;;;;;;;40.00;27.02;;;9.20;99.90;;;;;;4992781;28;20025;-78
2023/04/17 03:45:35;;;;;;;43.03;27.50;;;9.20;99.90;;;;;;5028582;28;20517;-76
2023/04/17 03:48:00;;;;;;;41.55;26.17;;;9.20;99.90;;;;;;5005087;28;20026;-76
2023/04/17 03:50:26;;;;;;;42.40;27.25;;;9.20;99.90;;;;;;5014603;28;20139;-77
2023/04/17 03:52:51;;;;;;;36.95;26.15;;;9.20;99.90;;;;;;5016750;28;20529;-76
2023/04/17 03:55:18;;;;;;;38.97;24.83;;;9.10;99.90;;;;;;5014724;28;20053;-76
2023/04/17 03:57:43;;;;;;;38.22;26.40;;;9.10;99.90;;;;;;5021442;28;20405;-76
2023/04/17 04:00:09;;;;;;;47.83;31.60;;;9.10;99.90;;;;;;4991506;28;20358;-76
2023/04/17 04:02:35;;;;;;;38.83;28.23;;;9.10;99.90;;;;;;5015047;28;20030;-76
2023/04/17 04:05:01;;;;;;;42.78;27.85;;;9.10;99.90;;;;;;5006990;28;20124;-77
2023/04/17 04:07:27;;;;;;;42.67;28.92;;;9.00;99.90;;;;;;5006287;28;20228;-76
2023/04/17 04:09:52;;;;;;;43.63;28.77;;;9.10;99.90;;;;;;5013199;28;20053;-76
2023/04/17 04:12:18;;;;;;;42.70;27.83;;;9.10;99.90;;;;;;4997974;28;20493;-76
2023/04/17 04:14:44;;;;;;;42.55;29.27;;;9.00;99.90;;;;;;5017154;28;20057;-76
2023/04/17 04:17:09;;;;;;;47.70;29.42;;;9.00;99.90;;;;;;5005738;28;20029;-76
2023/04/17 04:19:35;;;;;;;44.17;29.90;;;9.00;99.90;;;;;;5031310;28;20043;-76
2023/04/17 04:22:01;;;;;;;41.22;28.60;;;9.00;99.90;;;;;;5015852;28;20026;-76
2023/04/17 04:24:27;;;;;;;43.92;28.67;;;9.00;99.90;;;;;;5004990;28;20125;-77
2023/04/17 04:26:52;;;;;;;39.40;27.30;;;8.90;99.90;;;;;;5023033;28;20109;-76
2023/04/17 04:29:18;;;;;;;42.40;26.48;;;9.00;99.90;;;;;;5015712;28;20037;-76
2023/04/17 04:31:45;;;;;;;44.15;28.17;;;8.90;99.90;;;;;;5005298;28;20042;-77
2023/04/17 04:34:12;;;;;;;46.28;29.05;;;8.90;99.90;;;;;;4990566;28;20033;-77
2023/04/17 04:36:49;;;;;;;42.55;27.98;;;8.90;99.90;;;;;;5007081;28;20053;-79
2023/04/17 04:39:19;;;;;;;43.97;28.80;;;8.90;99.90;;;;;;5015127;28;20595;-77
2023/04/17 04:41:49;;;;;;;42.78;28.48;;;8.90;99.90;;;;;;5015122;28;20561;-77
2023/04/17 04:44:15;;;;;;;39.88;26.77;;;8.90;99.90;;;;;;5015636;28;20034;-77
2023/04/17 04:46:40;;;;;;;43.53;28.08;;;8.90;99.90;;;;;;5014005;28;20050;-77
2023/04/17 04:49:06;;;;;;;43.33;29.00;;;8.90;99.90;;;;;;4997304;28;20482;-77
2023/04/17 04:51:32;;;;;;;46.95;30.90;;;8.90;99.90;;;;;;5005142;28;20034;-77
2023/04/17 04:53:58;;;;;;;46.65;29.38;;;8.90;99.90;;;;;;5002285;28;20040;-77
2023/04/17 04:56:23;;;;;;;42.78;29.00;;;8.90;99.90;;;;;;5015763;28;20386;-76
2023/04/17 04:58:49;;;;;;;37.83;26.90;;;8.90;99.90;;;;;;5018006;28;20030;-77
2023/04/17 05:01:16;;;;;;;38.03;25.65;;;9.00;99.90;;;;;;5002353;28;20030;-76
2023/04/17 05:03:43;;;;;;;41.88;27.90;;;9.00;99.90;;;;;;4996522;28;20494;-76
2023/04/17 05:06:10;;;;;;;45.58;29.40;;;9.00;99.90;;;;;;4999007;28;20058;-76
2023/04/17 05:08:35;;;;;;;47.70;30.70;;;9.00;99.90;;;;;;5018001;28;20072;-77
2023/04/17 05:11:01;;;;;;;44.90;30.05;;;9.00;99.90;;;;;;5012500;28;20045;-76
2023/04/17 05:13:29;;;;;;;44.20;30.40;;;9.00;99.90;;;;;;5018876;28;20030;-77
2023/04/17 05:15:55;;;;;;;47.55;31.35;;;9.00;99.90;;;;;;4999298;28;20025;-78
2023/04/17 05:18:20;;;;;;;41.75;30.98;;;9.10;99.90;;;;;;5016327;28;20088;-76
2023/04/17 05:20:46;;;;;;;50.08;32.75;;;9.00;99.90;;;;;;5001327;28;20053;-76
2023/04/17 05:23:11;;;;;;;48.35;31.42;;;9.00;99.90;;;;;;5001535;28;20038;-77
2023/04/17 05:25:37;;;;;;;49.13;32.95;;;9.00;99.90;;;;;;4998667;28;20041;-76
2023/04/17 05:28:02;;;;;;;48.00;32.72;;;9.00;99.90;;;;;;5015304;28;20040;-76
2023/04/17 05:30:28;;;;;;;40.85;27.33;;;9.00;99.90;;;;;;4995423;28;20422;-76
2023/04/17 05:32:54;;;;;;;52.83;35.15;;;9.10;99.90;;;;;;5015010;28;20034;-76
2023/04/17 05:35:19;;;;;;;45.22;32.28;;;9.10;99.90;;;;;;5006689;28;20034;-76
2023/04/17 05:37:45;;;;;;;42.15;28.33;;;9.10;99.90;;;;;;5003016;28;20029;-76
2023/04/17 05:40:12;;;;;;;44.50;30.60;;;9.20;99.90;;;;;;4987905;28;20040;-78
2023/04/17 05:42:37;;;;;;;44.65;31.05;;;9.20;99.90;;;;;;4999939;28;20068;-76
2023/04/17 05:45:03;;;;;;;51.13;29.80;;;9.20;99.90;;;;;;5013810;28;20115;-76
2023/04/17 05:47:30;;;;;;;47.85;29.85;;;9.20;99.90;;;;;;5013816;28;20041;-79
2023/04/17 05:49:57;;;;;;;49.30;30.20;;;9.30;99.90;;;;;;5019164;28;20038;-77
2023/04/17 05:52:23;;;;;;;41.10;29.33;;;9.30;99.90;;;;;;5016371;28;20037;-78
2023/04/17 05:54:49;;;;;;;46.92;31.40;;;9.30;99.90;;;;;;5001101;28;20029;-78
2023/04/17 05:57:15;;;;;;;47.45;30.48;;;9.30;99.90;;;;;;4995505;28;20569;-80
2023/04/17 05:59:42;;;;;;;44.97;29.30;;;9.30;99.90;;;;;;5020865;28;20033;-79
2023/04/17 06:02:07;;;;;;;41.95;33.15;;;9.40;99.90;;;;;;5014085;28;20048;-79
2023/04/17 06:04:33;;;;;;;42.30;29.35;;;9.40;99.90;;;;;;5010573;28;20034;-79
2023/04/17 06:06:58;;;;;;;37.72;24.67;;;9.50;99.90;;;;;;5014512;28;20034;-78
2023/04/17 06:09:24;;;;;;;41.55;28.67;;;9.50;99.90;;;;;;5032596;28;20105;-79
2023/04/17 06:11:50;;;;;;;40.28;26.70;;;9.50;99.90;;;;;;5009483;28;20414;-79
2023/04/17 06:14:15;;;;;;;38.10;26.90;;;9.60;99.90;;;;;;5016856;28;20075;-78
2023/04/17 06:16:41;;;;;;;37.80;27.27;;;9.60;99.90;;;;;;5014452;28;20029;-79
2023/04/17 06:19:06;;;;;;;38.90;27.10;;;9.60;99.90;;;;;;5019443;28;20052;-78
2023/04/17 06:21:32;;;;;;;37.55;26.50;;;9.70;99.90;;;;;;5014496;28;20052;-79
2023/04/17 06:23:58;;;;;;;35.25;24.95;;;9.80;99.90;;;;;;5024445;28;20044;-79
2023/04/17 06:26:23;;;;;;;47.40;28.58;;;9.80;99.90;;;;;;5019299;28;20037;-79
2023/04/17 06:28:49;;;;;;;36.55;26.25;;;9.80;99.90;;;;;;5004202;28;20024;-78
2023/04/17 06:31:14;;;;;;;37.80;25.67;;;9.90;99.90;;;;;;5004092;28;20033;-77
2023/04/17 06:33:40;;;;;;;37.28;24.95;;;9.90;99.90;;;;;;5018346;28;20045;-77
2023/04/17 06:36:06;;;;;;;37.30;26.55;;;10.00;99.90;;;;;;5017728;28;20031;-77
2023/04/17 06:38:31;;;;;;;33.17;24.70;;;10.10;99.90;;;;;;5015794;28;20037;-78
2023/04/17 06:40:57;;;;;;;40.08;27.25;;;10.10;99.90;;;;;;5019530;28;20441;-77
2023/04/17 06:43:22;;;;;;;36.03;25.13;;;10.20;99.90;;;;;;5036042;28;20025;-78
2023/04/17 06:45:48;;;;;;;36.42;25.85;;;10.20;99.90;;;;;;5003112;28;20022;-77
2023/04/17 06:48:13;;;;;;;42.15;26.42;;;10.20;99.90;;;;;;5019133;28;20018;-78
2023/04/17 06:50:39;;;;;;;41.10;25.65;;;10.30;99.90;;;;;;5018210;28;20093;-77
2023/04/17 06:53:05;;;;;;;38.42;27.35;;;10.30;99.90;;;;;;5017134;28;20030;-77
2023/04/17 06:55:30;;;;;;;40.85;29.40;;;10.40;99.90;;;;;;5019383;28;20040;-77
2023/04/17 06:57:56;;;;;;;39.38;28.25;;;10.40;99.90;;;;;;5005508;28;20057;-78
2023/04/17 07:00:22;;;;;;;41.05;28.30;;;10.40;99.90;;;;;;5008546;28;20421;-78
2023/04/17 07:02:47;;;;;;;44.42;29.42;;;10.40;99.90;;;;;;4999613;28;20030;-77
2023/04/17 07:05:13;;;;;;;39.67;26.67;;;10.50;99.90;;;;;;5025607;28;20546;-77
2023/04/17 07:07:39;;;;;;;39.47;26.25;;;10.60;99.90;;;;;;5019448;28;20068;-78
2023/04/17 07:10:06;;;;;;;48.00;29.30;;;10.60;99.90;;;;;;5019659;28;20108;-78
2023/04/17 07:12:32;;;;;;;38.60;27.25;;;10.60;99.90;;;;;;5031209;28;20133;-77
2023/04/17 07:14:57;;;;;;;42.90;27.63;;;10.60;99.90;;;;;;5039933;28;20037;-78
2023/04/17 07:17:23;;;;;;;37.53;27.25;;;10.70;99.90;;;;;;5038920;28;20107;-77
2023/04/17 07:19:48;;;;;;;36.67;26.08;;;10.80;99.90;;;;;;5015265;28;20030;-76
2023/04/17 07:22:14;;;;;;;42.53;28.05;;;10.80;99.90;;;;;;5008459;28;20077;-77
2023/04/17 07:24:40;;;;;;;39.78;27.73;;;10.80;99.90;;;;;;5010445;28;20033;-77
2023/04/17 07:27:06;;;;;;;39.90;29.25;;;10.90;99.90;;;;;;5018579;28;20116;-79
2023/04/17 07:29:31;;;;;;;40.70;28.98;;;10.90;99.90;;;;;;5015358;28;20048;-77
2023/04/17 07:31:57;;;;;;;41.38;29.23;;;11.00;99.90;;;;;;5019759;28;20042;-77
2023/04/17 07:34:24;;;;;;;42.78;28.00;;;10.90;99.90;;;;;;5019266;28;20034;-77
2023/04/17 07:36:50;;;;;;;40.50;27.30;;;11.00;99.90;;;;;;5018791;28;20394;-76
2023/04/17 07:39:16;;;;;;;41.42;28.73;;;11.00;99.90;;;;;;5026090;28;20055;-77
2023/04/17 07:41:42;;;;;;;38.67;27.95;;;11.00;99.90;;;;;;5020130;28;20525;-77
2023/04/17 07:44:07;;;;;;;43.25;29.63;;;11.10;99.90;;;;;;4991908;28;20053;-76
2023/04/17 07:46:33;;;;;;;38.75;27.90;;;11.00;99.90;;;;;;5001837;28;20027;-76
2023/04/17 07:48:59;;;;;;;41.75;29.63;;;11.00;99.90;;;;;;5034311;28;20029;-76
2023/04/17 07:51:25;;;;;;;47.47;30.92;;;11.10;99.90;;;;;;5033618;28;20045;-77
2023/04/17 07:53:50;;;;;;;42.88;28.50;;;11.10;99.90;;;;;;5016634;28;20032;-76
2023/04/17 07:56:16;;;;;;;41.05;27.25;;;11.20;99.90;;;;;;5001304;28;20073;-77
2023/04/17 07:58:44;;;;;;;45.88;29.13;;;11.30;99.90;;;;;;5002015;28;20125;-77
2023/04/17 08:01:09;;;;;;;36.42;26.73;;;11.40;99.90;;;;;;5018453;28;20029;-77
2023/04/17 08:03:35;;;;;;;47.50;31.33;;;11.50;99.90;;;;;;5002799;28;20030;-77
2023/04/17 08:06:00;;;;;;;42.38;27.70;;;11.60;99.90;;;;;;5034537;28;20033;-77
2023/04/17 08:08:26;;;;;;;44.95;31.23;;;11.70;99.90;;;;;;5019722;28;20045;-77
2023/04/17 08:10:51;;;;;;;40.65;28.17;;;11.80;99.90;;;;;;5001686;28;20053;-76
2023/04/17 08:13:17;;;;;;;42.30;29.40;;;11.80;99.90;;;;;;5014841;28;20037;-76
2023/04/17 08:15:44;;;;;;;41.38;28.23;;;11.90;99.90;;;;;;5001747;28;20044;-77
2023/04/17 08:18:10;;;;;;;42.83;29.05;;;12.00;99.90;;;;;;5000978;28;20685;-77
2023/04/17 08:20:35;;;;;;;40.75;28.23;;;12.10;99.90;;;;;;5015342;28;20045;-76
2023/04/17 08:23:01;;;;;;;36.60;24.83;;;12.30;99.90;;;;;;5029589;28;20120;-77
2023/04/17 08:25:27;;;;;;;41.97;28.90;;;12.40;99.90;;;;;;5003412;28;20029;-77
2023/04/17 08:27:52;;;;;;;36.20;26.27;;;12.60;99.90;;;;;;5032537;28;20033;-77
2023/04/17 08:30:19;;;;;;;35.92;26.67;;;12.60;99.90;;;;;;5017132;28;20121;-77
2023/04/17 08:32:45;;;;;;;40.28;28.02;;;12.80;99.90;;;;;;5000561;28;20481;-77
2023/04/17 08:35:12;;;;;;;37.95;26.65;;;12.80;99.90;;;;;;4999053;28;20033;-77
2023/04/17 08:37:38;;;;;;;39.70;28.02;;;12.90;99.90;;;;;;5019634;28;20052;-77
2023/04/17 08:40:11;;;;;;;43.03;26.65;;;12.90;99.90;;;;;;5014428;28;20061;-77
2023/04/17 08:42:38;;;;;;;36.03;25.88;;;12.90;99.90;;;;;;5002754;28;20042;-77
2023/04/17 08:45:05;;;;;;;37.00;27.20;;;13.00;99.90;;;;;;5007473;28;20120;-76
2023/04/17 08:47:34;;;;;;;38.58;26.88;;;13.20;99.90;;;;;;5000996;28;20044;-77
2023/04/17 08:50:10;;;;;;;34.53;24.35;;;13.40;99.90;;;;;;5018615;28;20033;-77
2023/04/17 08:52:42;;;;;;;38.28;26.02;;;13.50;99.90;;;;;;4998874;28;20123;-77
2023/04/17 08:55:15;;;;;;;37.47;24.98;;;13.60;99.90;;;;;;5013584;28;20068;-77
2023/04/17 08:58:00;;;;;;;33.70;26.50;;;13.80;99.90;;;;;;5001092;28;20029;-77
2023/04/17 09:00:27;;;;;;;33.38;22.02;;;14.00;99.90;;;;;;5012658;28;20088;-77
2023/04/17 09:02:54;;;;;;;32.00;22.95;;;14.20;99.90;;;;;;5006237;28;20547;-77
2023/04/17 09:05:21;;;;;;;34.28;22.40;;;14.40;99.90;;;;;;5022396;28;20037;-77
2023/04/17 09:07:48;;;;;;;29.80;22.33;;;14.50;99.90;;;;;;4997838;28;20033;-77
2023/04/17 09:10:13;;;;;;;33.08;22.48;;;14.60;99.90;;;;;;5005365;28;20034;-77
2023/04/17 09:12:40;;;;;;;30.63;22.73;;;14.80;99.90;;;;;;5020878;28;20034;-77
2023/04/17 09:15:15;;;;;;;28.23;20.02;;;15.10;99.90;;;;;;5018700;28;20126;-77
2023/04/17 09:17:41;;;;;;;29.05;22.05;;;15.30;99.90;;;;;;5019824;28;20033;-77
2023/04/17 09:20:07;;;;;;;29.75;21.38;;;15.40;99.90;;;;;;5013999;28;20087;-78
2023/04/17 09:22:34;;;;;;;26.38;19.20;;;15.60;99.90;;;;;;5013882;28;20037;-77
2023/04/17 09:25:00;;;;;;;24.27;19.83;;;15.80;99.90;;;;;;5013815;28;20037;-77
2023/04/17 09:27:26;;;;;;;28.60;20.52;;;15.90;99.90;;;;;;5000350;28;20395;-77
2023/04/17 09:30:03;;;;;;;25.55;18.35;;;16.00;99.90;;;;;;5024475;28;20069;-77
2023/04/17 09:32:30;;;;;;;22.90;17.48;;;16.20;99.90;;;;;;5017613;28;20033;-77
2023/04/17 09:34:58;;;;;;;20.67;15.30;;;16.30;99.90;;;;;;5013324;28;20055;-77
2023/04/17 09:37:24;;;;;;;20.90;14.82;;;16.30;99.90;;;;;;5004883;28;20073;-77
2023/04/17 09:39:59;;;;;;;22.73;15.32;;;16.40;99.90;;;;;;5013474;28;20571;-77
2023/04/17 09:42:25;;;;;;;22.67;13.93;;;16.50;99.90;;;;;;5017788;28;20585;-77
2023/04/17 09:44:51;;;;;;;21.83;15.00;;;16.70;99.90;;;;;;5012718;28;20512;-77
2023/04/17 09:47:17;;;;;;;19.83;13.50;;;16.70;99.90;;;;;;4998691;28;20037;-77
2023/04/17 09:49:51;;;;;;;20.80;13.05;;;16.80;99.90;;;;;;5031919;28;20470;-77
2023/04/17 09:52:22;;;;;;;21.73;13.63;;;16.90;99.90;;;;;;4999428;28;20072;-77
2023/04/17 09:54:50;;;;;;;18.70;13.73;;;17.00;99.90;;;;;;5016173;28;20628;-77
2023/04/17 09:57:15;;;;;;;22.83;13.85;;;17.20;99.90;;;;;;4998946;28;20108;-77
2023/04/17 09:59:46;;;;;;;18.80;14.25;;;17.30;99.90;;;;;;5006385;28;20597;-77
2023/04/17 10:02:12;;;;;;;16.23;11.68;;;17.50;99.90;;;;;;5011814;28;20540;-77
2023/04/17 10:04:42;;;;;;;17.15;12.05;;;17.40;99.90;;;;;;5016577;28;20505;-77
2023/04/17 10:07:07;;;;;;;16.92;11.98;;;17.80;99.90;;;;;;5021952;28;20473;-77
2023/04/17 10:09:33;;;;;;;18.35;12.50;;;17.90;99.90;;;;;;4999516;28;20079;-77
2023/04/17 10:12:00;;;;;;;15.43;12.20;;;18.00;99.90;;;;;;4999447;28;20601;-78
2023/04/17 10:14:31;;;;;;;20.13;11.35;;;18.00;99.90;;;;;;5016294;28;20147;-78
2023/04/17 10:16:57;;;;;;;12.88;10.50;;;18.00;99.90;;;;;;5015241;28;20996;-77
2023/04/17 10:19:31;;;;;;;17.88;11.38;;;18.00;99.90;;;;;;5014478;28;20042;-78
2023/04/17 10:22:18;;;;;;;16.88;10.95;;;17.90;99.90;;;;;;5033014;28;20457;-78
2023/04/17 10:24:48;;;;;;;13.48;10.80;;;17.90;99.90;;;;;;5011741;28;20029;-78
2023/04/17 10:27:26;;;;;;;13.52;9.88;;;18.00;99.90;;;;;;5019921;28;20945;-78
2023/04/17 10:29:55;;;;;;;16.75;9.38;;;18.10;99.90;;;;;;5012417;28;20547;-78
2023/04/17 10:32:24;;;;;;;16.00;10.30;;;18.10;99.90;;;;;;5015406;28;20481;-78
2023/04/17 10:34:50;;;;;;;14.18;9.80;;;18.30;99.90;;;;;;5015282;28;20038;-78
2023/04/17 10:37:16;;;;;;;11.93;10.10;;;18.40;99.90;;;;;;5026528;28;20478;-78
2023/04/17 10:39:58;;;;;;;15.05;9.60;;;18.50;99.90;;;;;;5004180;28;20041;-78
2023/04/17 10:42:24;;;;;;;13.80;9.80;;;18.80;99.90;;;;;;5022196;28;20064;-78
2023/04/17 10:44:51;;;;;;;13.75;9.68;;;18.90;99.90;;;;;;5019856;28;20080;-79
2023/04/17 10:47:20;;;;;;;14.45;10.05;;;18.80;99.90;;;;;;5009788;28;20179;-79
2023/04/17 10:49:50;;;;;;;18.98;10.90;;;18.90;99.90;;;;;;5017984;28;20044;-79
2023/04/17 10:52:43;;;;;;;12.18;9.10;;;19.10;99.90;;;;;;5011799;28;20038;-79
2023/04/17 10:55:16;;;;;;;11.55;9.20;;;18.90;99.90;;;;;;5005376;28;20037;-79
2023/04/17 10:58:17;;;;;;;9.30;6.85;;;19.20;99.90;;;;;;5020368;28;20033;-79
2023/04/17 11:00:49;;;;;;;12.77;8.80;;;19.50;99.90;;;;;;4945823;28;20566;-79
2023/04/17 11:03:15;;;;;;;14.05;9.50;;;19.80;99.90;;;;;;5017912;28;20041;-79
2023/04/17 11:05:46;;;;;;;10.52;8.48;;;20.00;99.90;;;;;;5035215;28;20037;-79
2023/04/17 11:08:12;;;;;;;10.45;7.93;;;20.20;99.90;;;;;;5025071;28;20114;-79
2023/04/17 11:10:38;;;;;;;9.52;6.90;;;20.30;99.90;;;;;;5023793;28;20084;-80
2023/04/17 11:13:03;;;;;;;7.03;5.25;;;20.60;99.90;;;;;;5024525;28;20048;-80
2023/04/17 11:15:30;;;;;;;8.98;6.20;;;20.70;99.90;;;;;;5018272;28;20494;-80
2023/04/17 11:17:56;;;;;;;6.93;6.13;;;20.90;99.90;;;;;;5018351;28;20112;-80
2023/04/17 11:20:23;;;;;;;9.88;6.75;;;21.10;99.90;;;;;;5017789;28;20045;-80
2023/04/17 11:22:48;;;;;;;11.45;7.32;;;21.10;99.90;;;;;;5020279;28;20547;-80
2023/04/17 11:25:25;;;;;;;8.93;6.18;;;21.10;97.20;;;;;;5022050;28;20041;-80
2023/04/17 11:28:01;;;;;;;10.90;7.05;;;21.20;94.60;;;;;;5003229;28;20041;-80
2023/04/17 11:30:27;;;;;;;;;;;21.10;96.00;;;;;;5023307;28;20026;-80
2023/04/17 11:32:52;;;;;;;10.90;7.38;;;21.00;91.70;;;;;;5017097;28;19918;-80
2023/04/17 11:35:27;;;;;;;11.93;8.02;;;20.80;93.90;;;;;;5014574;28;20048;-80
2023/04/17 11:38:06;;;;;;;12.68;7.85;;;20.60;94.10;;;;;;5015560;28;20494;-81
2023/04/17 11:40:31;;;;;;;13.13;8.93;;;20.40;95.40;;;;;;5018891;28;20033;-80
2023/04/17 11:43:01;;;;;;;11.57;7.80;;;20.30;91.40;;;;;;5004571;28;20044;-80
2023/04/17 11:45:30;;;;;;;12.10;5.72;;;20.00;92.30;;;;;;5017976;28;20030;-80
2023/04/17 11:47:55;;;;;;;12.32;8.93;;;19.90;97.60;;;;;;5028037;28;20034;-81
2023/04/17 11:50:21;;;;;;;11.00;7.38;;;20.10;94.10;;;;;;5024114;28;20026;-81
2023/04/17 11:52:46;;;;;;;8.50;6.80;;;20.30;95.60;;;;;;5004652;28;20026;-80
2023/04/17 11:55:12;;;;;;;9.98;7.93;;;20.40;92.60;;;;;;4995629;28;20034;-81
2023/04/17 11:57:43;;;;;;;14.68;7.80;;;20.30;94.50;;;;;;4999930;28;20074;-81
2023/04/17 12:00:13;;;;;;;11.32;8.07;;;20.40;92.00;;;;;;5015355;28;20113;-81
2023/04/17 12:02:38;;;;;;;12.38;8.20;;;20.60;90.90;;;;;;5006266;28;20176;-81
2023/04/17 12:05:17;;;;;;;9.77;6.97;;;20.50;92.50;;;;;;5013957;28;20120;-81
2023/04/17 12:07:42;;;;;;;7.88;6.80;;;20.60;93.60;;;;;;5009909;28;20026;-81
2023/04/17 12:10:08;;;;;;;11.25;7.50;;;20.90;92.90;;;;;;4999694;28;20045;-81
2023/04/17 12:12:33;;;;;;;10.13;7.40;;;21.00;94.70;;;;;;5000424;28;20052;-81
2023/04/17 12:14:59;;;;;;;11.50;7.68;;;21.00;92.80;;;;;;5022381;28;20376;-81
2023/04/17 12:17:25;;;;;;;9.75;7.53;;;21.00;90.80;;;;;;5028312;28;20075;-81
2023/04/17 12:19:52;;;;;;;12.02;7.95;;;21.10;91.90;;;;;;5001044;28;20037;-81
2023/04/17 12:22:17;;;;;;;15.48;7.82;;;21.10;83.90;;;;;;5013196;28;20473;-81
2023/04/17 12:24:43;;;;;;;10.23;8.05;;;21.00;90.30;;;;;;5020680;28;20065;-81
2023/04/17 12:27:08;;;;;;;13.68;8.32;;;20.90;87.40;;;;;;5012093;28;20026;-81
2023/04/17 12:29:34;;;;;;;10.35;7.88;;;20.90;85.40;;;;;;5014540;28;20101;-81
2023/04/17 12:32:00;;;;;;;11.93;8.85;;;20.80;90.30;;;;;;5012062;28;20041;-81